createdAt,value
2023-05-13T00:02:21.775Z,11.91
2023-05-13T00:04:49.464Z,11.91
2023-05-13T00:07:17.097Z,11.87
2023-05-13T00:09:44.696Z,11.89
2023-05-13T00:12:12.491Z,11.93
2023-05-13T00:14:40.082Z,11.93
2023-05-13T00:17:09.068Z,11.95
2023-05-13T00:19:36.700Z,11.94
2023-05-13T00:22:04.815Z,11.85
2023-05-13T00:24:32.476Z,11.94
2023-05-13T00:27:00.466Z,11.93
2023-05-13T00:29:28.099Z,11.95
2023-05-13T00:31:56.073Z,11.95
2023-05-13T00:34:25.270Z,11.94
2023-05-13T00:36:53.183Z,11.98
2023-05-13T00:39:20.976Z,11.93
2023-05-13T00:41:48.671Z,11.93
2023-05-13T00:44:16.309Z,11.87
2023-05-13T00:46:44.009Z,11.91
2023-05-13T00:49:11.824Z,11.95
2023-05-13T00:51:40.860Z,11.98
2023-05-13T00:54:08.648Z,11.99
2023-05-13T00:56:38.624Z,11.96
2023-05-13T00:59:07.751Z,11.98
2023-05-13T01:01:45.486Z,12.01
2023-05-13T01:04:25.636Z,11.96
2023-05-13T01:07:09.321Z,11.96
2023-05-13T01:09:49.943Z,11.91
2023-05-13T01:12:43.398Z,11.98
2023-05-13T01:15:15.673Z,11.99
2023-05-13T01:17:51.294Z,12.03
2023-05-13T01:20:22.366Z,12.03
2023-05-13T01:22:52.074Z,11.97
2023-05-13T01:25:19.977Z,11.94
2023-05-13T01:27:47.910Z,12.00
2023-05-13T01:30:18.037Z,11.98
2023-05-13T01:32:46.672Z,11.97
2023-05-13T01:35:17.423Z,11.93
2023-05-13T01:37:47.822Z,11.91
2023-05-13T01:40:31.226Z,11.95
2023-05-13T01:43:03.250Z,11.93
2023-05-13T01:45:32.381Z,11.91
2023-05-13T01:48:01.169Z,11.91
2023-05-13T01:50:38.083Z,11.92
2023-05-13T01:53:06.643Z,11.89
2023-05-13T01:55:35.722Z,11.90
2023-05-13T01:58:05.173Z,11.92
2023-05-13T02:00:33.254Z,11.92
2023-05-13T02:03:00.976Z,11.97
2023-05-13T02:05:28.914Z,11.99
2023-05-13T02:07:57.391Z,12.04
2023-05-13T02:10:25.269Z,12.05
2023-05-13T02:12:54.984Z,12.08
2023-05-13T02:15:22.804Z,12.07
2023-05-13T02:17:51.196Z,12.08
2023-05-13T02:20:20.487Z,12.08
2023-05-13T02:22:48.640Z,12.07
2023-05-13T02:25:16.282Z,12.07
2023-05-13T02:27:44.195Z,12.10
2023-05-13T02:30:13.819Z,12.11
2023-05-13T02:32:44.056Z,12.11
2023-05-13T02:35:11.820Z,12.09
2023-05-13T02:37:40.041Z,12.08
2023-05-13T02:40:09.317Z,12.02
2023-05-13T02:42:37.249Z,12.02
2023-05-13T02:45:05.806Z,12.01
2023-05-13T02:47:36.898Z,11.95
2023-05-13T02:50:09.857Z,11.89
2023-05-13T02:52:39.405Z,11.94
2023-05-13T02:55:09.352Z,11.85
2023-05-13T02:57:38.573Z,11.92
2023-05-13T03:00:07.990Z,11.89
2023-05-13T03:02:37.090Z,11.87
2023-05-13T03:05:05.279Z,11.82
2023-05-13T03:07:33.214Z,11.87
2023-05-13T03:10:00.948Z,11.82
2023-05-13T03:12:29.907Z,11.85
2023-05-13T03:14:57.546Z,11.84
2023-05-13T03:17:25.497Z,11.86
2023-05-13T03:19:54.495Z,11.84
2023-05-13T03:22:22.094Z,11.81
2023-05-13T03:24:50.200Z,11.81
2023-05-13T03:27:20.348Z,11.78
2023-05-13T03:29:48.511Z,11.80
2023-05-13T03:32:16.416Z,11.73
2023-05-13T03:34:44.152Z,11.68
2023-05-13T03:37:13.150Z,11.72
2023-05-13T03:39:40.926Z,11.61
2023-05-13T03:42:09.536Z,11.54
2023-05-13T03:44:38.820Z,11.58
2023-05-13T03:47:07.987Z,11.62
2023-05-13T03:49:37.239Z,11.57
2023-05-13T03:52:08.372Z,11.52
2023-05-13T03:54:37.826Z,11.46
2023-05-13T03:57:05.760Z,11.54
2023-05-13T03:59:33.395Z,11.59
2023-05-13T04:02:01.730Z,11.59
2023-05-13T04:04:29.494Z,11.56
2023-05-13T04:06:58.621Z,11.57
2023-05-13T04:09:26.281Z,11.55
2023-05-13T04:11:55.739Z,11.52
2023-05-13T04:14:23.856Z,11.51
2023-05-13T04:16:51.590Z,11.50
2023-05-13T04:19:19.279Z,11.51
2023-05-13T04:21:47.531Z,11.53
2023-05-13T04:24:16.659Z,11.52
2023-05-13T04:26:44.438Z,11.50
2023-05-13T04:29:13.670Z,11.55
2023-05-13T04:31:42.215Z,11.40
2023-05-13T04:34:10.079Z,11.47
2023-05-13T04:36:37.788Z,11.53
2023-05-13T04:39:05.413Z,11.52
2023-05-13T04:41:33.438Z,11.54
2023-05-13T04:44:02.645Z,11.51
2023-05-13T04:46:31.704Z,11.58
2023-05-13T04:48:59.585Z,11.63
2023-05-13T04:51:27.844Z,11.58
2023-05-13T04:53:56.139Z,11.57
2023-05-13T04:56:23.940Z,11.60
2023-05-13T04:58:51.679Z,11.59
2023-05-13T05:01:19.696Z,11.61
2023-05-13T05:03:49.443Z,11.59
2023-05-13T05:06:17.582Z,11.50
2023-05-13T05:08:45.711Z,11.51
2023-05-13T05:11:14.014Z,11.54
2023-05-13T05:13:41.934Z,11.57
2023-05-13T05:16:10.731Z,11.57
2023-05-13T05:18:41.220Z,11.58
2023-05-13T05:21:10.576Z,11.53
2023-05-13T05:23:38.200Z,11.61
2023-05-13T05:26:11.567Z,11.58
2023-05-13T05:28:40.530Z,11.56
2023-05-13T05:31:09.677Z,11.60
2023-05-13T05:33:37.822Z,11.58
2023-05-13T05:36:07.482Z,11.46
2023-05-13T05:38:37.221Z,11.56
2023-05-13T05:41:06.139Z,11.59
2023-05-13T05:43:33.789Z,11.62
2023-05-13T05:46:01.510Z,11.67
2023-05-13T05:48:29.375Z,11.67
2023-05-13T05:50:57.368Z,11.71
2023-05-13T05:53:32.007Z,11.76
2023-05-13T05:56:02.558Z,11.76
2023-05-13T05:58:30.839Z,11.80
2023-05-13T06:01:00.519Z,11.73
2023-05-13T06:03:28.317Z,11.83
2023-05-13T06:05:56.009Z,11.81
2023-05-13T06:08:29.850Z,11.82
2023-05-13T06:10:58.589Z,11.80
2023-05-13T06:13:28.304Z,11.81
2023-05-13T06:15:56.484Z,11.85
2023-05-13T06:18:24.159Z,11.87
2023-05-13T06:20:51.879Z,11.81
2023-05-13T06:23:19.667Z,11.67
2023-05-13T06:25:47.298Z,11.74
2023-05-13T06:28:14.916Z,11.81
2023-05-13T06:30:45.315Z,11.88
2023-05-13T06:33:13.133Z,11.87
2023-05-13T06:35:41.204Z,11.85
2023-05-13T06:38:10.460Z,11.87
2023-05-13T06:40:38.186Z,11.89
2023-05-13T06:43:06.839Z,11.89
2023-05-13T06:45:38.780Z,11.82
2023-05-13T06:48:08.052Z,11.89
2023-05-13T06:50:38.254Z,11.91
2023-05-13T06:53:05.894Z,11.99
2023-05-13T06:55:35.883Z,11.93
2023-05-13T06:58:03.487Z,11.81
2023-05-13T07:00:31.198Z,11.93
2023-05-13T07:02:58.832Z,12.00
2023-05-13T07:05:28.040Z,12.07
2023-05-13T07:07:55.673Z,12.15
2023-05-13T07:10:23.547Z,12.16
2023-05-13T07:12:51.522Z,12.16
2023-05-13T07:15:19.396Z,12.26
2023-05-13T07:17:47.225Z,12.24
2023-05-13T07:20:15.116Z,12.28
2023-05-13T07:22:44.074Z,12.27
2023-05-13T07:25:12.452Z,12.27
2023-05-13T07:27:40.251Z,12.26
2023-05-13T07:30:08.978Z,12.24
2023-05-13T07:32:37.045Z,12.16
2023-05-13T07:35:05.255Z,12.19
2023-05-13T07:37:32.873Z,12.18
2023-05-13T07:40:01.843Z,12.18
2023-05-13T07:42:30.098Z,12.20
2023-05-13T07:44:57.766Z,12.15
2023-05-13T07:47:27.622Z,12.18
2023-05-13T07:49:55.692Z,12.20
2023-05-13T07:52:23.466Z,12.21
2023-05-13T07:54:51.249Z,12.24
2023-05-13T07:57:20.370Z,12.19
2023-05-13T07:59:47.966Z,12.20
2023-05-13T08:02:15.698Z,12.22
2023-05-13T08:04:43.329Z,12.31
2023-05-13T08:07:11.302Z,12.34
2023-05-13T08:09:38.940Z,12.34
2023-05-13T08:12:07.079Z,12.38
2023-05-13T08:14:36.628Z,12.48
2023-05-13T08:17:06.211Z,12.56
2023-05-13T08:19:33.896Z,12.50
2023-05-13T08:22:01.551Z,12.52
2023-05-13T08:24:29.279Z,12.68
2023-05-13T08:26:57.115Z,12.70
2023-05-13T08:29:24.712Z,12.72
2023-05-13T08:31:54.546Z,12.70
2023-05-13T08:34:22.259Z,12.81
2023-05-13T08:36:49.846Z,12.92
2023-05-13T08:39:17.558Z,12.96
2023-05-13T08:41:45.877Z,13.05
2023-05-13T08:44:14.283Z,13.11
2023-05-13T08:46:45.280Z,13.16
2023-05-13T08:49:14.873Z,13.26
2023-05-13T08:51:44.227Z,13.41
2023-05-13T08:54:11.954Z,13.54
2023-05-13T08:56:39.683Z,13.73
2023-05-13T08:59:07.246Z,14.03
2023-05-13T09:01:35.657Z,14.13
2023-05-13T09:04:07.300Z,14.23
2023-05-13T09:06:36.344Z,14.15
2023-05-13T09:09:05.803Z,14.12
2023-05-13T09:11:34.690Z,14.23
2023-05-13T09:14:05.605Z,14.22
2023-05-13T09:16:33.778Z,14.19
2023-05-13T09:19:02.201Z,14.14
2023-05-13T09:21:32.100Z,14.13
2023-05-13T09:24:13.239Z,14.08
2023-05-13T09:26:42.945Z,13.93
2023-05-13T09:29:22.135Z,13.95
2023-05-13T09:31:51.842Z,13.93
2023-05-13T09:34:27.532Z,13.85
2023-05-13T09:37:01.389Z,13.81
2023-05-13T09:39:33.483Z,13.73
2023-05-13T09:42:03.859Z,13.67
2023-05-13T09:44:33.649Z,13.78
2023-05-13T09:47:02.333Z,13.79
2023-05-13T09:49:32.433Z,13.86
2023-05-13T09:52:00.070Z,13.90
2023-05-13T09:54:28.744Z,14.03
2023-05-13T09:57:01.351Z,13.92
2023-05-13T09:59:29.097Z,13.88
2023-05-13T10:02:00.038Z,13.95
2023-05-13T10:04:28.869Z,13.89
2023-05-13T10:06:56.940Z,14.04
2023-05-13T10:09:25.146Z,14.16
2023-05-13T10:11:54.443Z,14.15
2023-05-13T10:14:23.585Z,14.30
2023-05-13T10:16:52.350Z,14.31
2023-05-13T10:19:21.439Z,14.26
2023-05-13T10:21:51.986Z,14.15
2023-05-13T10:24:21.552Z,14.27
2023-05-13T10:26:50.369Z,14.29
2023-05-13T10:29:18.958Z,14.43
2023-05-13T10:31:49.147Z,14.44
2023-05-13T10:34:17.801Z,14.62
2023-05-13T10:37:00.533Z,14.67
2023-05-13T10:39:47.908Z,14.72
2023-05-13T10:42:41.338Z,14.85
2023-05-13T10:45:09.535Z,14.82
2023-05-13T10:47:39.520Z,14.93
2023-05-13T10:50:23.027Z,14.94
2023-05-13T10:52:51.152Z,14.69
2023-05-13T10:55:21.886Z,14.77
2023-05-13T10:58:08.119Z,14.52
2023-05-13T11:00:37.386Z,14.52
2023-05-13T11:03:14.764Z,14.67
2023-05-13T11:05:45.234Z,14.77
2023-05-13T11:08:37.974Z,14.93
2023-05-13T11:11:28.558Z,14.90
2023-05-13T11:14:03.394Z,14.81
2023-05-13T11:16:31.161Z,14.79
2023-05-13T11:19:02.018Z,14.86
2023-05-13T11:21:31.492Z,14.97
2023-05-13T11:24:03.912Z,15.10
2023-05-13T11:26:48.835Z,15.32
2023-05-13T11:29:16.976Z,15.40
2023-05-13T11:31:48.460Z,15.44
2023-05-13T11:34:17.902Z,15.42
2023-05-13T11:36:47.888Z,15.22
2023-05-13T11:39:19.264Z,15.08
2023-05-13T11:41:48.555Z,15.06
2023-05-13T11:44:17.461Z,15.00
2023-05-13T11:46:56.136Z,15.06
2023-05-13T11:49:34.454Z,15.14
2023-05-13T11:52:02.922Z,15.17
2023-05-13T11:54:32.021Z,15.25
2023-05-13T11:56:59.613Z,15.37
2023-05-13T11:59:33.326Z,15.34
2023-05-13T12:02:06.396Z,15.25
2023-05-13T12:04:34.519Z,15.15
2023-05-13T12:07:02.519Z,15.14
2023-05-13T12:09:30.678Z,15.16
2023-05-13T12:11:59.676Z,15.12
2023-05-13T12:14:27.923Z,15.10
2023-05-13T12:16:56.435Z,15.07
2023-05-13T12:19:24.161Z,15.11
2023-05-13T12:21:52.119Z,15.13
2023-05-13T12:24:20.928Z,15.21
2023-05-13T12:26:49.034Z,15.33
2023-05-13T12:29:18.119Z,15.44
2023-05-13T12:32:05.738Z,15.56
2023-05-13T12:34:33.659Z,15.63
2023-05-13T12:37:11.272Z,15.88
2023-05-13T12:39:39.081Z,15.90
2023-05-13T12:42:07.320Z,15.91
2023-05-13T12:44:36.486Z,15.94
2023-05-13T12:47:04.570Z,15.85
2023-05-13T12:49:32.365Z,15.79
2023-05-13T12:52:00.065Z,15.67
2023-05-13T12:54:27.649Z,15.79
2023-05-13T12:56:55.425Z,15.84
2023-05-13T12:59:23.416Z,15.96
2023-05-13T13:01:52.931Z,15.99
2023-05-13T13:04:21.349Z,15.78
2023-05-13T13:06:50.142Z,15.76
2023-05-13T13:09:18.141Z,15.84
2023-05-13T13:11:46.863Z,15.88
2023-05-13T13:14:15.392Z,16.00
2023-05-13T13:16:43.439Z,15.85
2023-05-13T13:19:13.826Z,15.88
2023-05-13T13:21:42.677Z,15.88
2023-05-13T13:24:11.548Z,15.93
2023-05-13T13:26:39.278Z,15.97
2023-05-13T13:29:07.019Z,16.10
2023-05-13T13:31:34.709Z,15.94
2023-05-13T13:34:04.993Z,16.00
2023-05-13T13:36:33.928Z,16.02
2023-05-13T13:39:01.781Z,15.98
2023-05-13T13:41:29.356Z,15.97
2023-05-13T13:43:57.098Z,15.87
2023-05-13T13:46:25.245Z,15.74
2023-05-13T13:48:53.056Z,15.68
2023-05-13T13:51:20.759Z,15.61
2023-05-13T13:53:50.536Z,15.63
2023-05-13T13:56:18.198Z,15.46
2023-05-13T13:58:46.011Z,15.56
2023-05-13T14:01:14.670Z,15.59
2023-05-13T14:03:42.399Z,15.68
2023-05-13T14:06:10.105Z,15.75
2023-05-13T14:08:37.725Z,15.85
2023-05-13T14:11:07.078Z,15.95
2023-05-13T14:13:34.650Z,15.99
2023-05-13T14:16:02.519Z,15.97
2023-05-13T14:18:30.179Z,15.94
2023-05-13T14:20:57.800Z,16.00
2023-05-13T14:23:25.394Z,16.04
2023-05-13T14:25:53.023Z,16.01
2023-05-13T14:28:23.211Z,15.92
2023-05-13T14:30:52.596Z,15.79
2023-05-13T14:33:20.240Z,15.68
2023-05-13T14:35:47.983Z,15.63
2023-05-13T14:38:15.709Z,15.61
2023-05-13T14:40:43.932Z,15.63
2023-05-13T14:43:11.530Z,15.69
2023-05-13T14:45:40.927Z,15.76
2023-05-13T14:48:08.699Z,15.83
2023-05-13T14:50:36.863Z,16.00
2023-05-13T14:53:04.461Z,16.34
2023-05-13T14:55:32.185Z,16.65
2023-05-13T14:58:00.062Z,17.38
2023-05-13T15:00:28.037Z,17.83
2023-05-13T15:02:57.120Z,18.29
2023-05-13T15:05:26.267Z,18.48
2023-05-13T15:07:53.892Z,18.95
2023-05-13T15:10:21.669Z,18.94
2023-05-13T15:12:49.826Z,19.23
2023-05-13T15:15:17.552Z,19.43
2023-05-13T15:17:45.195Z,19.40
2023-05-13T15:20:14.433Z,19.44
2023-05-13T15:22:42.483Z,19.58
2023-05-13T15:25:10.252Z,19.68
2023-05-13T15:27:37.850Z,19.49
2023-05-13T15:30:06.302Z,19.53
2023-05-13T15:32:34.115Z,19.52
2023-05-13T15:35:01.849Z,19.36
2023-05-13T15:37:30.815Z,19.08
2023-05-13T15:39:58.456Z,18.84
2023-05-13T15:42:26.679Z,18.63
2023-05-13T15:44:54.264Z,18.39
2023-05-13T15:47:22.056Z,18.26
2023-05-13T15:49:50.754Z,18.19
2023-05-13T15:52:18.469Z,18.13
2023-05-13T15:54:47.544Z,18.08
2023-05-13T15:57:18.073Z,18.02
2023-05-13T15:59:45.955Z,17.96
2023-05-13T16:02:13.629Z,17.98
2023-05-13T16:04:41.273Z,17.98
2023-05-13T16:07:10.879Z,17.89
2023-05-13T16:09:38.900Z,17.87
2023-05-13T16:12:08.412Z,17.82
2023-05-13T16:14:36.259Z,17.66
2023-05-13T16:17:03.861Z,17.56
2023-05-13T16:19:31.442Z,17.38
2023-05-13T16:21:59.042Z,17.20
2023-05-13T16:24:26.858Z,17.14
2023-05-13T16:26:54.522Z,17.05
2023-05-13T16:29:23.457Z,17.02
2023-05-13T16:31:51.098Z,16.85
2023-05-13T16:34:18.871Z,16.71
2023-05-13T16:36:46.485Z,16.64
2023-05-13T16:39:14.249Z,16.55
2023-05-13T16:41:42.304Z,16.52
2023-05-13T16:44:09.903Z,16.42
2023-05-13T16:46:38.814Z,16.35
2023-05-13T16:49:06.423Z,16.25
2023-05-13T16:51:34.165Z,16.28
2023-05-13T16:54:01.743Z,16.31
2023-05-13T16:56:31.196Z,16.36
2023-05-13T16:58:59.867Z,16.34
2023-05-13T17:01:27.519Z,16.31
2023-05-13T17:03:56.812Z,16.30
2023-05-13T17:06:24.446Z,16.37
2023-05-13T17:08:52.026Z,16.36
2023-05-13T17:11:19.811Z,16.38
2023-05-13T17:13:47.441Z,16.34
2023-05-13T17:16:15.798Z,16.34
2023-05-13T17:18:43.431Z,16.33
2023-05-13T17:21:12.459Z,16.30
2023-05-13T17:23:40.223Z,16.25
2023-05-13T17:26:08.020Z,16.23
2023-05-13T17:28:35.768Z,16.27
2023-05-13T17:31:03.610Z,16.25
2023-05-13T17:33:31.910Z,16.23
2023-05-13T17:35:59.591Z,16.21
2023-05-13T17:38:28.645Z,16.23
2023-05-13T17:40:56.245Z,16.23
2023-05-13T17:43:24.132Z,16.19
2023-05-13T17:45:52.000Z,16.18
2023-05-13T17:48:19.793Z,16.14
2023-05-13T17:50:47.729Z,16.11
2023-05-13T17:53:15.376Z,16.06
2023-05-13T17:55:44.287Z,15.98
2023-05-13T17:58:12.000Z,15.92
2023-05-13T18:00:39.637Z,15.88
2023-05-13T18:03:07.494Z,15.76
2023-05-13T18:05:35.579Z,15.71
2023-05-13T18:08:03.534Z,15.66
2023-05-13T18:10:31.254Z,15.63
2023-05-13T18:13:00.460Z,15.60
2023-05-13T18:15:28.216Z,15.53
2023-05-13T18:17:56.052Z,15.49
2023-05-13T18:20:24.181Z,15.43
2023-05-13T18:22:52.094Z,15.36
2023-05-13T18:25:19.856Z,15.31
2023-05-13T18:27:47.524Z,15.31
2023-05-13T18:30:17.263Z,15.27
2023-05-13T18:32:44.922Z,15.23
2023-05-13T18:35:12.848Z,15.20
2023-05-13T18:37:40.423Z,15.15
2023-05-13T18:40:09.542Z,15.13
2023-05-13T18:42:37.332Z,15.11
2023-05-13T18:45:06.103Z,15.10
2023-05-13T18:47:35.437Z,15.07
2023-05-13T18:50:05.333Z,15.00
2023-05-13T18:52:33.669Z,14.94
2023-05-13T18:55:05.044Z,14.92
2023-05-13T18:57:33.350Z,14.90
2023-05-13T19:00:02.028Z,14.87
2023-05-13T19:02:30.041Z,14.83
2023-05-13T19:04:59.138Z,14.80
2023-05-13T19:07:27.288Z,14.78
2023-05-13T19:09:54.888Z,14.74
2023-05-13T19:12:22.590Z,14.71
2023-05-13T19:14:50.169Z,14.68
2023-05-13T19:17:18.065Z,14.67
2023-05-13T19:19:45.731Z,14.64
2023-05-13T19:22:14.931Z,14.59
2023-05-13T19:24:42.545Z,14.58
2023-05-13T19:27:10.533Z,14.56
2023-05-13T19:29:38.317Z,14.57
2023-05-13T19:32:06.643Z,14.53
2023-05-13T19:34:34.294Z,14.54
2023-05-13T19:37:02.285Z,14.51
2023-05-13T19:39:31.192Z,14.49
2023-05-13T19:41:58.836Z,14.44
2023-05-13T19:44:28.011Z,14.41
2023-05-13T19:46:56.799Z,14.36
2023-05-13T19:49:25.444Z,14.36
2023-05-13T19:51:54.360Z,14.32
2023-05-13T19:54:25.048Z,14.31
2023-05-13T19:56:54.359Z,14.31
2023-05-13T19:59:22.102Z,14.29
2023-05-13T20:01:49.781Z,14.27
2023-05-13T20:04:17.716Z,14.24
2023-05-13T20:06:45.307Z,14.21
2023-05-13T20:09:13.066Z,14.22
2023-05-13T20:11:40.847Z,14.21
2023-05-13T20:14:11.775Z,14.22
2023-05-13T20:16:39.448Z,14.18
2023-05-13T20:19:07.104Z,14.17
2023-05-13T20:21:34.863Z,14.14
2023-05-13T20:24:02.624Z,14.13
2023-05-13T20:26:34.437Z,14.11
2023-05-13T20:29:02.322Z,14.05
2023-05-13T20:31:31.294Z,14.01
2023-05-13T20:33:58.937Z,13.98
2023-05-13T20:36:27.087Z,13.98
2023-05-13T20:38:54.679Z,13.94
2023-05-13T20:41:22.852Z,13.97
2023-05-13T20:43:50.457Z,13.97
2023-05-13T20:46:18.123Z,13.97
2023-05-13T20:48:47.883Z,13.95
2023-05-13T20:51:15.650Z,13.93
2023-05-13T20:53:43.230Z,13.92
2023-05-13T20:56:10.884Z,13.93
2023-05-13T20:58:38.616Z,13.93
2023-05-13T21:01:06.278Z,13.92
2023-05-13T21:03:34.196Z,13.92
2023-05-13T21:06:03.374Z,13.92
2023-05-13T21:08:30.985Z,13.89
2023-05-13T21:10:58.578Z,13.91
2023-05-13T21:13:26.651Z,13.92
2023-05-13T21:15:56.068Z,13.88
2023-05-13T21:18:24.042Z,13.88
2023-05-13T21:20:52.952Z,13.86
2023-05-13T21:23:21.908Z,13.86
2023-05-13T21:25:49.685Z,13.83
2023-05-13T21:28:18.840Z,13.80
2023-05-13T21:30:46.530Z,13.80
2023-05-13T21:33:14.246Z,13.82
2023-05-13T21:35:41.821Z,13.84
2023-05-13T21:38:12.295Z,13.82
2023-05-13T21:40:41.759Z,13.81
2023-05-13T21:43:09.393Z,13.77
2023-05-13T21:45:37.455Z,13.72
2023-05-13T21:48:05.740Z,13.68
2023-05-13T21:50:34.016Z,13.69
2023-05-13T21:53:02.758Z,13.59
2023-05-13T21:55:35.033Z,13.55
2023-05-13T21:58:04.397Z,13.51
2023-05-13T22:00:32.190Z,13.47
2023-05-13T22:03:00.688Z,13.40
2023-05-13T22:05:28.498Z,13.37
2023-05-13T22:07:56.132Z,13.35
2023-05-13T22:10:23.968Z,13.33
2023-05-13T22:12:52.066Z,13.25
2023-05-13T22:15:21.067Z,13.21
2023-05-13T22:17:50.635Z,13.19
2023-05-13T22:20:18.734Z,13.17
2023-05-13T22:22:46.378Z,13.17
2023-05-13T22:25:13.972Z,13.18
2023-05-13T22:27:41.883Z,13.15
2023-05-13T22:30:10.165Z,13.19
2023-05-13T22:32:39.182Z,13.18
2023-05-13T22:35:08.106Z,13.16
2023-05-13T22:37:35.698Z,13.11
2023-05-13T22:40:03.441Z,13.08
2023-05-13T22:42:31.052Z,13.00
2023-05-13T22:44:58.770Z,12.94
2023-05-13T22:47:26.464Z,12.92
2023-05-13T22:49:55.545Z,12.90
2023-05-13T22:52:23.113Z,12.89
2023-05-13T22:54:50.722Z,12.87
2023-05-13T22:57:18.306Z,12.84
2023-05-13T22:59:46.052Z,12.79
2023-05-13T23:02:13.702Z,12.72
2023-05-13T23:04:41.349Z,12.67
2023-05-13T23:07:10.274Z,12.62
2023-05-13T23:09:38.010Z,12.58
2023-05-13T23:12:06.425Z,12.50
2023-05-13T23:14:34.094Z,12.48
2023-05-13T23:17:01.879Z,12.42
2023-05-13T23:19:29.540Z,12.39
2023-05-13T23:21:57.304Z,12.35
2023-05-13T23:24:26.489Z,12.32
2023-05-13T23:26:54.087Z,12.28
2023-05-13T23:29:21.700Z,12.28
2023-05-13T23:31:49.321Z,12.28
2023-05-13T23:34:16.942Z,12.28
2023-05-13T23:36:44.532Z,12.27
2023-05-13T23:39:12.325Z,12.27
2023-05-13T23:41:41.471Z,12.30
2023-05-13T23:44:09.071Z,12.32
2023-05-13T23:46:36.832Z,12.31
2023-05-13T23:49:04.441Z,12.35
2023-05-13T23:51:32.470Z,12.39
2023-05-13T23:54:00.742Z,12.43
2023-05-13T23:56:28.486Z,12.50
2023-05-13T23:58:57.445Z,12.52
